Terminal Aerodrome Forecast
Issued by NWS

Home | Current Version | Previous Version | Graphics & Text | Print | Product List | Glossary On
Versions: 1 2 3 4 5 6 7 8 9 10 11 12 13 14 15 16 17 18 19 20
000
FTUS41 KCLE 272000 AAA
TAFFDY
TAF AMD
KFDY 272007Z 2720/2818 22014G22KT P6SM -SHRA OVC010
      TEMPO 2720/2724 3SM -SHRA BR OVC015
     FM280000 23012G18KT 5SM -RA BR OVC010
     FM280500 28010KT 6SM -SHRA SCT012 OVC018
     FM280900 28008KT 6SM BR VCSH OVC020
     FM281300 28009KT P6SM VCSH OVC025
     FM281500 28010KT P6SM BKN030=

USA.gov is the U.S. government's official web portal to all federal, state and local government web resources and services.